sensor_id;sensor_type;location;lat;lon;timestamp;P1;durP1;ratioP1;P2;durP2;ratioP2
1380;SDS011;684;48.342;10.096;2023-05-10T00:00:27;5.17;;;2.10;;
1380;SDS011;684;48.342;10.096;2023-05-10T00:02:54;4.90;;;2.60;;
1380;SDS011;684;48.342;10.096;2023-05-10T00:05:21;4.70;;;1.93;;
1380;SDS011;684;48.342;10.096;2023-05-10T00:07:48;4.80;;;2.23;;
1380;SDS011;684;48.342;10.096;2023-05-10T00:10:14;4.73;;;2.23;;
1380;SDS011;684;48.342;10.096;2023-05-10T00:12:41;12.20;;;2.00;;
1380;SDS011;684;48.342;10.096;2023-05-10T00:15:10;5.23;;;1.93;;
1380;SDS011;684;48.342;10.096;2023-05-10T00:17:37;4.50;;;1.90;;
1380;SDS011;684;48.342;10.096;2023-05-10T00:20:04;4.83;;;2.30;;
1380;SDS011;684;48.342;10.096;2023-05-10T00:22:31;4.43;;;1.90;;
1380;SDS011;684;48.342;10.096;2023-05-10T00:24:58;4.87;;;2.10;;
1380;SDS011;684;48.342;10.096;2023-05-10T00:27:25;4.60;;;1.93;;
1380;SDS011;684;48.342;10.096;2023-05-10T00:29:52;5.10;;;2.13;;
1380;SDS011;684;48.342;10.096;2023-05-10T00:32:20;4.73;;;1.90;;
1380;SDS011;684;48.342;10.096;2023-05-10T00:34:46;5.73;;;1.87;;
1380;SDS011;684;48.342;10.096;2023-05-10T00:37:13;6.23;;;2.37;;
1380;SDS011;684;48.342;10.096;2023-05-10T00:39:40;4.73;;;1.80;;
1380;SDS011;684;48.342;10.096;2023-05-10T00:42:06;4.90;;;1.97;;
1380;SDS011;684;48.342;10.096;2023-05-10T00:44:33;4.27;;;1.63;;
1380;SDS011;684;48.342;10.096;2023-05-10T00:47:00;4.30;;;1.53;;
1380;SDS011;684;48.342;10.096;2023-05-10T00:49:28;5.57;;;1.97;;
1380;SDS011;684;48.342;10.096;2023-05-10T00:51:56;5.70;;;1.70;;
1380;SDS011;684;48.342;10.096;2023-05-10T00:54:23;5.63;;;1.97;;
1380;SDS011;684;48.342;10.096;2023-05-10T00:56:50;6.13;;;1.87;;
1380;SDS011;684;48.342;10.096;2023-05-10T00:59:17;4.43;;;1.73;;
1380;SDS011;684;48.342;10.096;2023-05-10T01:01:44;4.80;;;1.60;;
1380;SDS011;684;48.342;10.096;2023-05-10T01:04:11;4.00;;;1.50;;
1380;SDS011;684;48.342;10.096;2023-05-10T01:06:40;5.00;;;1.50;;
1380;SDS011;684;48.342;10.096;2023-05-10T01:09:08;4.83;;;1.60;;
1380;SDS011;684;48.342;10.096;2023-05-10T01:11:35;4.30;;;1.50;;
1380;SDS011;684;48.342;10.096;2023-05-10T01:14:04;4.53;;;1.60;;
1380;SDS011;684;48.342;10.096;2023-05-10T01:16:32;4.50;;;1.80;;
1380;SDS011;684;48.342;10.096;2023-05-10T01:19:02;4.90;;;2.00;;
1380;SDS011;684;48.342;10.096;2023-05-10T01:21:33;7.57;;;1.53;;
1380;SDS011;684;48.342;10.096;2023-05-10T01:24:20;4.53;;;1.70;;
1380;SDS011;684;48.342;10.096;2023-05-10T01:30:09;4.83;;;1.30;;
1380;SDS011;684;48.342;10.096;2023-05-10T01:33:11;4.60;;;1.40;;
1380;SDS011;684;48.342;10.096;2023-05-10T01:35:46;3.90;;;1.13;;
1380;SDS011;684;48.342;10.096;2023-05-10T01:38:18;4.10;;;1.20;;
1380;SDS011;684;48.342;10.096;2023-05-10T01:40:52;3.80;;;1.10;;
1380;SDS011;684;48.342;10.096;2023-05-10T01:43:26;3.83;;;1.10;;
1380;SDS011;684;48.342;10.096;2023-05-10T01:45:59;4.90;;;1.20;;
1380;SDS011;684;48.342;10.096;2023-05-10T01:48:36;3.50;;;0.70;;
1380;SDS011;684;48.342;10.096;2023-05-10T01:51:05;4.07;;;1.13;;
1380;SDS011;684;48.342;10.096;2023-05-10T01:53:34;3.80;;;0.90;;
1380;SDS011;684;48.342;10.096;2023-05-10T01:56:04;3.80;;;0.87;;
1380;SDS011;684;48.342;10.096;2023-05-10T01:58:33;3.80;;;0.87;;
1380;SDS011;684;48.342;10.096;2023-05-10T02:01:03;6.03;;;0.70;;
1380;SDS011;684;48.342;10.096;2023-05-10T02:03:31;3.83;;;0.90;;
1380;SDS011;684;48.342;10.096;2023-05-10T02:06:01;7.33;;;0.80;;
1380;SDS011;684;48.342;10.096;2023-05-10T02:08:29;3.60;;;0.70;;
1380;SDS011;684;48.342;10.096;2023-05-10T02:10:56;3.57;;;0.70;;
1380;SDS011;684;48.342;10.096;2023-05-10T02:13:24;3.60;;;0.70;;
1380;SDS011;684;48.342;10.096;2023-05-10T02:15:53;3.60;;;0.80;;
1380;SDS011;684;48.342;10.096;2023-05-10T02:18:20;4.60;;;0.90;;
1380;SDS011;684;48.342;10.096;2023-05-10T02:20:49;3.87;;;0.87;;
1380;SDS011;684;48.342;10.096;2023-05-10T02:23:21;4.20;;;0.90;;
1380;SDS011;684;48.342;10.096;2023-05-10T02:25:50;4.97;;;1.00;;
1380;SDS011;684;48.342;10.096;2023-05-10T02:28:18;3.87;;;0.90;;
1380;SDS011;684;48.342;10.096;2023-05-10T02:30:47;3.73;;;1.00;;
1380;SDS011;684;48.342;10.096;2023-05-10T02:33:14;3.60;;;0.70;;
1380;SDS011;684;48.342;10.096;2023-05-10T02:35:41;4.17;;;1.00;;
1380;SDS011;684;48.342;10.096;2023-05-10T02:38:08;5.00;;;1.17;;
1380;SDS011;684;48.342;10.096;2023-05-10T02:40:38;4.80;;;1.00;;
1380;SDS011;684;48.342;10.096;2023-05-10T02:43:07;3.53;;;0.70;;
1380;SDS011;684;48.342;10.096;2023-05-10T02:45:36;4.27;;;0.97;;
1380;SDS011;684;48.342;10.096;2023-05-10T02:48:05;3.80;;;0.83;;
1380;SDS011;684;48.342;10.096;2023-05-10T02:50:32;3.50;;;0.70;;
1380;SDS011;684;48.342;10.096;2023-05-10T02:53:00;3.37;;;0.57;;
1380;SDS011;684;48.342;10.096;2023-05-10T02:55:31;3.67;;;0.63;;
1380;SDS011;684;48.342;10.096;2023-05-10T02:58:02;5.70;;;0.60;;
1380;SDS011;684;48.342;10.096;2023-05-10T03:00:30;3.47;;;0.63;;
1380;SDS011;684;48.342;10.096;2023-05-10T03:02:57;3.40;;;0.50;;
1380;SDS011;684;48.342;10.096;2023-05-10T03:05:24;3.47;;;0.60;;
1380;SDS011;684;48.342;10.096;2023-05-10T03:07:51;4.73;;;0.70;;
1380;SDS011;684;48.342;10.096;2023-05-10T03:10:19;3.70;;;0.60;;
1380;SDS011;684;48.342;10.096;2023-05-10T03:12:52;4.67;;;0.60;;
1380;SDS011;684;48.342;10.096;2023-05-10T03:15:31;3.47;;;0.53;;
1380;SDS011;684;48.342;10.096;2023-05-10T03:18:06;4.10;;;0.40;;
1380;SDS011;684;48.342;10.096;2023-05-10T03:20:38;3.50;;;0.50;;
1380;SDS011;684;48.342;10.096;2023-05-10T03:23:11;4.67;;;0.70;;
1380;SDS011;684;48.342;10.096;2023-05-10T03:25:42;3.40;;;0.43;;
1380;SDS011;684;48.342;10.096;2023-05-10T03:28:10;3.27;;;0.40;;
1380;SDS011;684;48.342;10.096;2023-05-10T03:30:39;6.30;;;0.40;;
1380;SDS011;684;48.342;10.096;2023-05-10T03:33:07;3.40;;;0.53;;
1380;SDS011;684;48.342;10.096;2023-05-10T03:35:34;3.93;;;0.40;;
1380;SDS011;684;48.342;10.096;2023-05-10T03:38:01;3.70;;;0.80;;
1380;SDS011;684;48.342;10.096;2023-05-10T03:40:28;4.10;;;0.60;;
1380;SDS011;684;48.342;10.096;2023-05-10T03:42:56;4.33;;;0.83;;
1380;SDS011;684;48.342;10.096;2023-05-10T03:45:23;5.50;;;0.70;;
1380;SDS011;684;48.342;10.096;2023-05-10T03:47:51;3.70;;;0.70;;
1380;SDS011;684;48.342;10.096;2023-05-10T03:50:18;3.70;;;0.60;;
1380;SDS011;684;48.342;10.096;2023-05-10T03:52:45;4.50;;;0.90;;
1380;SDS011;684;48.342;10.096;2023-05-10T03:55:12;4.63;;;0.70;;
1380;SDS011;684;48.342;10.096;2023-05-10T03:57:39;3.27;;;0.40;;
1380;SDS011;684;48.342;10.096;2023-05-10T04:00:06;3.40;;;0.40;;
1380;SDS011;684;48.342;10.096;2023-05-10T04:02:34;5.60;;;0.80;;
1380;SDS011;684;48.342;10.096;2023-05-10T04:05:02;8.83;;;1.60;;
1380;SDS011;684;48.342;10.096;2023-05-10T04:07:29;5.90;;;0.70;;
1380;SDS011;684;48.342;10.096;2023-05-10T04:09:56;4.00;;;0.70;;
1380;SDS011;684;48.342;10.096;2023-05-10T04:12:22;4.00;;;0.60;;
1380;SDS011;684;48.342;10.096;2023-05-10T04:14:49;3.57;;;0.70;;
1380;SDS011;684;48.342;10.096;2023-05-10T04:17:16;4.00;;;0.70;;
1380;SDS011;684;48.342;10.096;2023-05-10T04:19:43;10.67;;;1.07;;
1380;SDS011;684;48.342;10.096;2023-05-10T04:22:11;4.53;;;0.67;;
1380;SDS011;684;48.342;10.096;2023-05-10T04:24:38;3.80;;;0.90;;
1380;SDS011;684;48.342;10.096;2023-05-10T04:27:04;4.13;;;1.03;;
1380;SDS011;684;48.342;10.096;2023-05-10T04:29:31;3.87;;;0.80;;
1380;SDS011;684;48.342;10.096;2023-05-10T04:31:58;5.47;;;1.33;;
1380;SDS011;684;48.342;10.096;2023-05-10T04:34:24;4.30;;;0.97;;
1380;SDS011;684;48.342;10.096;2023-05-10T04:36:51;3.60;;;0.90;;
1380;SDS011;684;48.342;10.096;2023-05-10T04:39:19;4.23;;;0.97;;
1380;SDS011;684;48.342;10.096;2023-05-10T04:41:46;5.20;;;0.93;;
1380;SDS011;684;48.342;10.096;2023-05-10T04:44:13;4.37;;;0.77;;
1380;SDS011;684;48.342;10.096;2023-05-10T04:46:39;3.60;;;0.70;;
1380;SDS011;684;48.342;10.096;2023-05-10T04:49:06;4.33;;;0.80;;
1380;SDS011;684;48.342;10.096;2023-05-10T04:51:33;5.93;;;0.90;;
1380;SDS011;684;48.342;10.096;2023-05-10T04:53:59;3.97;;;0.80;;
1380;SDS011;684;48.342;10.096;2023-05-10T04:56:27;4.07;;;0.90;;
1380;SDS011;684;48.342;10.096;2023-05-10T04:58:54;6.50;;;0.70;;
1380;SDS011;684;48.342;10.096;2023-05-10T05:01:21;6.40;;;0.80;;
1380;SDS011;684;48.342;10.096;2023-05-10T05:03:48;3.80;;;0.90;;
1380;SDS011;684;48.342;10.096;2023-05-10T05:06:14;4.30;;;1.20;;
1380;SDS011;684;48.342;10.096;2023-05-10T05:08:41;4.07;;;0.83;;
1380;SDS011;684;48.342;10.096;2023-05-10T05:11:08;5.80;;;1.00;;
1380;SDS011;684;48.342;10.096;2023-05-10T05:13:36;4.30;;;0.80;;
1380;SDS011;684;48.342;10.096;2023-05-10T05:16:03;6.13;;;0.90;;
1380;SDS011;684;48.342;10.096;2023-05-10T05:18:30;3.70;;;0.93;;
1380;SDS011;684;48.342;10.096;2023-05-10T05:20:56;3.70;;;0.73;;
1380;SDS011;684;48.342;10.096;2023-05-10T05:23:23;4.67;;;0.70;;
1380;SDS011;684;48.342;10.096;2023-05-10T05:25:51;5.00;;;0.83;;
1380;SDS011;684;48.342;10.096;2023-05-10T05:28:17;4.00;;;0.93;;
1380;SDS011;684;48.342;10.096;2023-05-10T05:30:45;3.80;;;0.87;;
1380;SDS011;684;48.342;10.096;2023-05-10T05:33:12;4.30;;;0.90;;
1380;SDS011;684;48.342;10.096;2023-05-10T05:35:40;4.23;;;1.37;;
1380;SDS011;684;48.342;10.096;2023-05-10T05:38:07;3.40;;;0.57;;
1380;SDS011;684;48.342;10.096;2023-05-10T05:40:34;4.10;;;0.80;;
1380;SDS011;684;48.342;10.096;2023-05-10T05:43:01;3.90;;;0.87;;
1380;SDS011;684;48.342;10.096;2023-05-10T05:45:28;6.20;;;1.10;;
1380;SDS011;684;48.342;10.096;2023-05-10T05:47:56;3.50;;;0.67;;
1380;SDS011;684;48.342;10.096;2023-05-10T05:50:22;5.43;;;0.90;;
1380;SDS011;684;48.342;10.096;2023-05-10T05:52:49;4.40;;;1.20;;
1380;SDS011;684;48.342;10.096;2023-05-10T05:55:16;4.30;;;1.30;;
1380;SDS011;684;48.342;10.096;2023-05-10T05:57:43;3.80;;;0.90;;
1380;SDS011;684;48.342;10.096;2023-05-10T06:00:10;3.50;;;0.80;;
1380;SDS011;684;48.342;10.096;2023-05-10T06:02:37;4.57;;;1.00;;
1380;SDS011;684;48.342;10.096;2023-05-10T06:05:05;3.97;;;0.90;;
1380;SDS011;684;48.342;10.096;2023-05-10T06:07:33;3.83;;;0.70;;
1380;SDS011;684;48.342;10.096;2023-05-10T06:10:00;3.60;;;0.80;;
1380;SDS011;684;48.342;10.096;2023-05-10T06:12:27;4.00;;;0.90;;
1380;SDS011;684;48.342;10.096;2023-05-10T06:14:54;3.80;;;1.00;;
1380;SDS011;684;48.342;10.096;2023-05-10T06:17:21;4.70;;;1.10;;
1380;SDS011;684;48.342;10.096;2023-05-10T06:19:47;6.07;;;1.00;;
1380;SDS011;684;48.342;10.096;2023-05-10T06:22:16;5.17;;;1.20;;
1380;SDS011;684;48.342;10.096;2023-05-10T06:24:42;5.13;;;1.60;;
1380;SDS011;684;48.342;10.096;2023-05-10T06:27:09;4.43;;;1.13;;
1380;SDS011;684;48.342;10.096;2023-05-10T06:29:36;5.80;;;1.00;;
1380;SDS011;684;48.342;10.096;2023-05-10T06:32:03;4.47;;;1.27;;
1380;SDS011;684;48.342;10.096;2023-05-10T06:34:30;4.70;;;1.00;;
1380;SDS011;684;48.342;10.096;2023-05-10T06:36:56;3.90;;;1.23;;
1380;SDS011;684;48.342;10.096;2023-05-10T06:39:24;3.90;;;0.90;;
1380;SDS011;684;48.342;10.096;2023-05-10T06:41:51;6.77;;;1.30;;
1380;SDS011;684;48.342;10.096;2023-05-10T06:44:19;3.90;;;1.00;;
1380;SDS011;684;48.342;10.096;2023-05-10T06:46:46;5.30;;;1.13;;
1380;SDS011;684;48.342;10.096;2023-05-10T06:49:13;3.80;;;1.00;;
1380;SDS011;684;48.342;10.096;2023-05-10T06:51:39;4.87;;;1.00;;
1380;SDS011;684;48.342;10.096;2023-05-10T06:54:06;5.70;;;1.30;;
1380;SDS011;684;48.342;10.096;2023-05-10T06:56:34;3.50;;;0.87;;
1380;SDS011;684;48.342;10.096;2023-05-10T06:59:01;4.63;;;1.20;;
1380;SDS011;684;48.342;10.096;2023-05-10T07:01:27;5.90;;;1.23;;
1380;SDS011;684;48.342;10.096;2023-05-10T07:03:54;4.70;;;1.43;;
1380;SDS011;684;48.342;10.096;2023-05-10T07:06:21;9.73;;;2.13;;
1380;SDS011;684;48.342;10.096;2023-05-10T07:08:48;4.87;;;1.20;;
1380;SDS011;684;48.342;10.096;2023-05-10T07:11:14;5.53;;;1.30;;
1380;SDS011;684;48.342;10.096;2023-05-10T07:13:43;4.40;;;1.30;;
1380;SDS011;684;48.342;10.096;2023-05-10T07:16:11;3.70;;;0.90;;
1380;SDS011;684;48.342;10.096;2023-05-10T07:18:38;5.20;;;0.90;;
1380;SDS011;684;48.342;10.096;2023-05-10T07:21:05;4.63;;;1.17;;
1380;SDS011;684;48.342;10.096;2023-05-10T07:23:31;3.83;;;1.00;;
1380;SDS011;684;48.342;10.096;2023-05-10T07:25:58;4.30;;;1.03;;
1380;SDS011;684;48.342;10.096;2023-05-10T07:28:25;6.60;;;1.37;;
1380;SDS011;684;48.342;10.096;2023-05-10T07:30:53;4.20;;;1.30;;
1380;SDS011;684;48.342;10.096;2023-05-10T07:33:19;4.90;;;1.23;;
1380;SDS011;684;48.342;10.096;2023-05-10T07:35:46;4.37;;;1.40;;
1380;SDS011;684;48.342;10.096;2023-05-10T07:38:13;4.93;;;1.30;;
1380;SDS011;684;48.342;10.096;2023-05-10T07:40:39;4.97;;;1.00;;
1380;SDS011;684;48.342;10.096;2023-05-10T07:43:06;5.50;;;1.20;;
1380;SDS011;684;48.342;10.096;2023-05-10T07:45:33;5.60;;;1.00;;
1380;SDS011;684;48.342;10.096;2023-05-10T07:48:01;4.00;;;1.20;;
1380;SDS011;684;48.342;10.096;2023-05-10T07:50:28;4.63;;;1.40;;
1380;SDS011;684;48.342;10.096;2023-05-10T07:52:55;5.67;;;2.13;;
1380;SDS011;684;48.342;10.096;2023-05-10T07:55:21;8.20;;;1.53;;
1380;SDS011;684;48.342;10.096;2023-05-10T07:57:48;4.20;;;1.20;;
1380;SDS011;684;48.342;10.096;2023-05-10T08:00:16;4.10;;;0.80;;
1380;SDS011;684;48.342;10.096;2023-05-10T08:02:44;4.20;;;1.10;;
1380;SDS011;684;48.342;10.096;2023-05-10T08:05:12;4.00;;;1.10;;
1380;SDS011;684;48.342;10.096;2023-05-10T08:07:39;4.27;;;1.37;;
1380;SDS011;684;48.342;10.096;2023-05-10T08:10:06;6.17;;;1.20;;
1380;SDS011;684;48.342;10.096;2023-05-10T08:12:35;5.80;;;1.10;;
1380;SDS011;684;48.342;10.096;2023-05-10T08:15:03;5.40;;;1.47;;
1380;SDS011;684;48.342;10.096;2023-05-10T08:17:31;3.87;;;1.20;;
1380;SDS011;684;48.342;10.096;2023-05-10T08:19:58;4.60;;;1.20;;
1380;SDS011;684;48.342;10.096;2023-05-10T08:22:26;3.60;;;0.80;;
1380;SDS011;684;48.342;10.096;2023-05-10T08:27:29;4.43;;;1.10;;
1380;SDS011;684;48.342;10.096;2023-05-10T08:29:56;3.80;;;1.10;;
1380;SDS011;684;48.342;10.096;2023-05-10T08:32:23;5.87;;;1.07;;
1380;SDS011;684;48.342;10.096;2023-05-10T08:34:50;5.50;;;1.10;;
1380;SDS011;684;48.342;10.096;2023-05-10T08:37:16;5.70;;;1.30;;
1380;SDS011;684;48.342;10.096;2023-05-10T08:39:44;5.43;;;1.27;;
1380;SDS011;684;48.342;10.096;2023-05-10T08:42:12;3.77;;;1.00;;
1380;SDS011;684;48.342;10.096;2023-05-10T08:44:45;4.53;;;1.40;;
1380;SDS011;684;48.342;10.096;2023-05-10T08:47:15;3.90;;;1.20;;
1380;SDS011;684;48.342;10.096;2023-05-10T08:49:44;5.77;;;1.30;;
1380;SDS011;684;48.342;10.096;2023-05-10T08:52:13;3.87;;;1.10;;
1380;SDS011;684;48.342;10.096;2023-05-10T08:54:42;4.00;;;0.90;;
1380;SDS011;684;48.342;10.096;2023-05-10T08:57:11;5.00;;;1.20;;
1380;SDS011;684;48.342;10.096;2023-05-10T08:59:38;4.10;;;1.03;;
1380;SDS011;684;48.342;10.096;2023-05-10T09:02:05;4.73;;;1.50;;
1380;SDS011;684;48.342;10.096;2023-05-10T09:04:32;11.87;;;1.60;;
1380;SDS011;684;48.342;10.096;2023-05-10T09:06:59;4.20;;;1.10;;
1380;SDS011;684;48.342;10.096;2023-05-10T09:09:26;4.00;;;1.33;;
1380;SDS011;684;48.342;10.096;2023-05-10T09:11:54;3.77;;;1.13;;
1380;SDS011;684;48.342;10.096;2023-05-10T09:14:22;5.37;;;1.27;;
1380;SDS011;684;48.342;10.096;2023-05-10T09:16:50;4.30;;;1.20;;
1380;SDS011;684;48.342;10.096;2023-05-10T09:19:18;3.53;;;0.77;;
1380;SDS011;684;48.342;10.096;2023-05-10T09:21:45;4.23;;;1.00;;
1380;SDS011;684;48.342;10.096;2023-05-10T09:24:12;4.70;;;0.90;;
1380;SDS011;684;48.342;10.096;2023-05-10T09:26:45;3.73;;;0.90;;
1380;SDS011;684;48.342;10.096;2023-05-10T09:29:12;3.80;;;0.80;;
1380;SDS011;684;48.342;10.096;2023-05-10T09:31:45;10.30;;;1.43;;
1380;SDS011;684;48.342;10.096;2023-05-10T09:34:16;3.70;;;0.80;;
1380;SDS011;684;48.342;10.096;2023-05-10T09:36:51;5.73;;;0.80;;
1380;SDS011;684;48.342;10.096;2023-05-10T09:39:18;3.80;;;0.97;;
1380;SDS011;684;48.342;10.096;2023-05-10T09:41:46;3.30;;;0.70;;
1380;SDS011;684;48.342;10.096;2023-05-10T09:44:16;3.97;;;0.80;;
1380;SDS011;684;48.342;10.096;2023-05-10T09:46:49;3.80;;;0.90;;
1380;SDS011;684;48.342;10.096;2023-05-10T09:49:17;3.57;;;0.70;;
1380;SDS011;684;48.342;10.096;2023-05-10T09:51:44;3.60;;;0.83;;
1380;SDS011;684;48.342;10.096;2023-05-10T09:54:12;3.67;;;0.70;;
1380;SDS011;684;48.342;10.096;2023-05-10T09:56:40;3.77;;;0.70;;
1380;SDS011;684;48.342;10.096;2023-05-10T09:59:07;4.03;;;0.87;;
1380;SDS011;684;48.342;10.096;2023-05-10T10:01:36;3.50;;;0.80;;
1380;SDS011;684;48.342;10.096;2023-05-10T10:04:04;3.60;;;0.70;;
1380;SDS011;684;48.342;10.096;2023-05-10T10:06:36;3.43;;;0.63;;
1380;SDS011;684;48.342;10.096;2023-05-10T10:09:03;3.30;;;0.80;;
1380;SDS011;684;48.342;10.096;2023-05-10T10:11:31;3.20;;;0.50;;
1380;SDS011;684;48.342;10.096;2023-05-10T10:13:58;3.57;;;0.57;;
1380;SDS011;684;48.342;10.096;2023-05-10T10:16:24;4.17;;;1.03;;
1380;SDS011;684;48.342;10.096;2023-05-10T10:18:53;3.13;;;0.40;;
1380;SDS011;684;48.342;10.096;2023-05-10T10:21:21;3.90;;;0.60;;
1380;SDS011;684;48.342;10.096;2023-05-10T10:23:48;3.50;;;0.70;;
1380;SDS011;684;48.342;10.096;2023-05-10T10:26:15;3.40;;;0.60;;
1380;SDS011;684;48.342;10.096;2023-05-10T10:28:46;3.90;;;0.80;;
1380;SDS011;684;48.342;10.096;2023-05-10T10:31:19;4.40;;;0.80;;
1380;SDS011;684;48.342;10.096;2023-05-10T10:33:56;3.50;;;0.67;;
1380;SDS011;684;48.342;10.096;2023-05-10T10:36:28;5.03;;;0.90;;
1380;SDS011;684;48.342;10.096;2023-05-10T10:38:56;3.70;;;0.63;;
1380;SDS011;684;48.342;10.096;2023-05-10T10:41:33;3.60;;;0.80;;
1380;SDS011;684;48.342;10.096;2023-05-10T10:50:02;4.60;;;0.70;;
1380;SDS011;684;48.342;10.096;2023-05-10T10:52:31;3.27;;;0.63;;
1380;SDS011;684;48.342;10.096;2023-05-10T10:55:00;3.20;;;0.50;;
1380;SDS011;684;48.342;10.096;2023-05-10T10:57:30;3.50;;;0.50;;
1380;SDS011;684;48.342;10.096;2023-05-10T11:02:59;4.20;;;0.90;;
1380;SDS011;684;48.342;10.096;2023-05-10T11:05:39;3.73;;;0.80;;
1380;SDS011;684;48.342;10.096;2023-05-10T11:08:09;3.37;;;0.53;;
1380;SDS011;684;48.342;10.096;2023-05-10T11:10:37;3.57;;;0.40;;
1380;SDS011;684;48.342;10.096;2023-05-10T11:13:05;3.37;;;0.70;;
1380;SDS011;684;48.342;10.096;2023-05-10T11:15:34;3.03;;;0.30;;
1380;SDS011;684;48.342;10.096;2023-05-10T11:18:16;4.00;;;0.57;;
1380;SDS011;684;48.342;10.096;2023-05-10T11:20:43;4.07;;;0.70;;
1380;SDS011;684;48.342;10.096;2023-05-10T11:23:13;5.03;;;0.93;;
1380;SDS011;684;48.342;10.096;2023-05-10T11:25:42;3.30;;;0.70;;
1380;SDS011;684;48.342;10.096;2023-05-10T11:28:10;3.70;;;0.73;;
1380;SDS011;684;48.342;10.096;2023-05-10T11:30:37;3.40;;;0.73;;
1380;SDS011;684;48.342;10.096;2023-05-10T11:33:05;4.03;;;0.97;;
1380;SDS011;684;48.342;10.096;2023-05-10T11:35:36;4.53;;;0.70;;
1380;SDS011;684;48.342;10.096;2023-05-10T11:38:05;3.37;;;0.60;;
1380;SDS011;684;48.342;10.096;2023-05-10T11:40:34;3.37;;;0.60;;
1380;SDS011;684;48.342;10.096;2023-05-10T11:43:01;3.90;;;1.00;;
1380;SDS011;684;48.342;10.096;2023-05-10T11:45:29;4.00;;;0.80;;
1380;SDS011;684;48.342;10.096;2023-05-10T11:47:58;3.70;;;0.80;;
1380;SDS011;684;48.342;10.096;2023-05-10T11:50:25;4.37;;;0.70;;
1380;SDS011;684;48.342;10.096;2023-05-10T11:52:52;3.67;;;0.73;;
1380;SDS011;684;48.342;10.096;2023-05-10T11:55:19;3.70;;;1.00;;
1380;SDS011;684;48.342;10.096;2023-05-10T11:57:49;3.50;;;0.70;;
1380;SDS011;684;48.342;10.096;2023-05-10T12:00:18;5.93;;;1.13;;
1380;SDS011;684;48.342;10.096;2023-05-10T12:02:46;3.27;;;0.63;;
1380;SDS011;684;48.342;10.096;2023-05-10T12:05:12;7.23;;;0.80;;
1380;SDS011;684;48.342;10.096;2023-05-10T12:07:40;3.90;;;0.90;;
1380;SDS011;684;48.342;10.096;2023-05-10T12:10:07;4.40;;;2.07;;
1380;SDS011;684;48.342;10.096;2023-05-10T12:12:36;4.37;;;0.70;;
1380;SDS011;684;48.342;10.096;2023-05-10T12:15:06;3.40;;;0.70;;
1380;SDS011;684;48.342;10.096;2023-05-10T12:17:37;11.00;;;1.00;;
1380;SDS011;684;48.342;10.096;2023-05-10T12:20:14;5.53;;;0.90;;
1380;SDS011;684;48.342;10.096;2023-05-10T12:22:43;3.40;;;0.63;;
1380;SDS011;684;48.342;10.096;2023-05-10T12:25:12;10.20;;;0.73;;
1380;SDS011;684;48.342;10.096;2023-05-10T12:27:40;3.50;;;0.70;;
1380;SDS011;684;48.342;10.096;2023-05-10T12:30:17;3.40;;;0.73;;
1380;SDS011;684;48.342;10.096;2023-05-10T12:32:46;3.60;;;0.67;;
1380;SDS011;684;48.342;10.096;2023-05-10T12:35:13;3.57;;;0.80;;
1380;SDS011;684;48.342;10.096;2023-05-10T12:37:40;3.70;;;0.90;;
1380;SDS011;684;48.342;10.096;2023-05-10T12:40:08;3.87;;;0.90;;
1380;SDS011;684;48.342;10.096;2023-05-10T12:42:37;3.53;;;0.60;;
1380;SDS011;684;48.342;10.096;2023-05-10T12:45:05;5.10;;;0.83;;
1380;SDS011;684;48.342;10.096;2023-05-10T12:47:35;4.30;;;0.80;;
1380;SDS011;684;48.342;10.096;2023-05-10T12:50:02;3.50;;;0.80;;
1380;SDS011;684;48.342;10.096;2023-05-10T12:52:29;3.50;;;0.60;;
1380;SDS011;684;48.342;10.096;2023-05-10T12:54:58;3.90;;;0.73;;
1380;SDS011;684;48.342;10.096;2023-05-10T12:57:25;3.77;;;0.60;;
1380;SDS011;684;48.342;10.096;2023-05-10T12:59:54;4.03;;;0.70;;
1380;SDS011;684;48.342;10.096;2023-05-10T13:02:21;3.20;;;0.50;;
1380;SDS011;684;48.342;10.096;2023-05-10T13:04:49;4.90;;;0.77;;
1380;SDS011;684;48.342;10.096;2023-05-10T13:07:17;3.80;;;0.93;;
1380;SDS011;684;48.342;10.096;2023-05-10T13:09:43;3.57;;;0.80;;
1380;SDS011;684;48.342;10.096;2023-05-10T13:12:10;3.60;;;0.80;;
1380;SDS011;684;48.342;10.096;2023-05-10T13:14:37;4.03;;;1.00;;
1380;SDS011;684;48.342;10.096;2023-05-10T13:17:05;4.00;;;1.10;;
1380;SDS011;684;48.342;10.096;2023-05-10T13:19:32;4.40;;;1.10;;
1380;SDS011;684;48.342;10.096;2023-05-10T13:22:00;3.83;;;0.90;;
1380;SDS011;684;48.342;10.096;2023-05-10T13:24:27;4.43;;;0.93;;
1380;SDS011;684;48.342;10.096;2023-05-10T13:26:54;3.90;;;0.90;;
1380;SDS011;684;48.342;10.096;2023-05-10T13:29:21;3.60;;;0.90;;
1380;SDS011;684;48.342;10.096;2023-05-10T13:31:48;5.20;;;0.97;;
1380;SDS011;684;48.342;10.096;2023-05-10T13:34:15;5.10;;;1.10;;
1380;SDS011;684;48.342;10.096;2023-05-10T13:36:45;3.80;;;0.80;;
1380;SDS011;684;48.342;10.096;2023-05-10T13:39:13;4.00;;;1.30;;
1380;SDS011;684;48.342;10.096;2023-05-10T13:41:40;4.17;;;1.13;;
1380;SDS011;684;48.342;10.096;2023-05-10T13:44:07;4.10;;;1.00;;
1380;SDS011;684;48.342;10.096;2023-05-10T13:46:34;3.67;;;0.90;;
1380;SDS011;684;48.342;10.096;2023-05-10T13:49:00;4.50;;;1.00;;
1380;SDS011;684;48.342;10.096;2023-05-10T13:51:27;5.10;;;1.00;;
1380;SDS011;684;48.342;10.096;2023-05-10T13:53:54;4.77;;;0.90;;
1380;SDS011;684;48.342;10.096;2023-05-10T13:56:22;5.83;;;0.77;;
1380;SDS011;684;48.342;10.096;2023-05-10T13:58:48;5.03;;;1.00;;
1380;SDS011;684;48.342;10.096;2023-05-10T14:01:16;4.50;;;1.03;;
1380;SDS011;684;48.342;10.096;2023-05-10T14:03:42;6.03;;;1.57;;
1380;SDS011;684;48.342;10.096;2023-05-10T14:06:10;4.37;;;0.87;;
1380;SDS011;684;48.342;10.096;2023-05-10T14:08:36;4.60;;;1.17;;
1380;SDS011;684;48.342;10.096;2023-05-10T14:11:03;5.90;;;1.20;;
1380;SDS011;684;48.342;10.096;2023-05-10T14:13:31;4.90;;;1.30;;
1380;SDS011;684;48.342;10.096;2023-05-10T14:15:58;5.23;;;1.10;;
1380;SDS011;684;48.342;10.096;2023-05-10T14:18:25;5.60;;;1.20;;
1380;SDS011;684;48.342;10.096;2023-05-10T14:20:52;4.83;;;1.27;;
1380;SDS011;684;48.342;10.096;2023-05-10T14:23:21;4.40;;;1.13;;
1380;SDS011;684;48.342;10.096;2023-05-10T14:25:49;8.87;;;1.40;;
1380;SDS011;684;48.342;10.096;2023-05-10T14:28:16;6.53;;;1.47;;
1380;SDS011;684;48.342;10.096;2023-05-10T14:30:44;7.43;;;1.33;;
1380;SDS011;684;48.342;10.096;2023-05-10T14:33:11;5.53;;;1.07;;
1380;SDS011;684;48.342;10.096;2023-05-10T14:35:38;5.43;;;1.20;;
1380;SDS011;684;48.342;10.096;2023-05-10T14:38:05;4.30;;;1.30;;
1380;SDS011;684;48.342;10.096;2023-05-10T14:40:31;6.23;;;1.60;;
1380;SDS011;684;48.342;10.096;2023-05-10T14:42:58;5.30;;;1.23;;
1380;SDS011;684;48.342;10.096;2023-05-10T14:45:25;4.20;;;1.00;;
1380;SDS011;684;48.342;10.096;2023-05-10T14:47:53;6.23;;;2.03;;
1380;SDS011;684;48.342;10.096;2023-05-10T14:50:20;5.90;;;1.83;;
1380;SDS011;684;48.342;10.096;2023-05-10T14:52:46;4.63;;;1.10;;
1380;SDS011;684;48.342;10.096;2023-05-10T14:55:14;8.90;;;1.50;;
1380;SDS011;684;48.342;10.096;2023-05-10T14:57:41;5.00;;;1.33;;
1380;SDS011;684;48.342;10.096;2023-05-10T15:00:09;4.60;;;1.30;;
1380;SDS011;684;48.342;10.096;2023-05-10T15:02:37;6.43;;;1.50;;
1380;SDS011;684;48.342;10.096;2023-05-10T15:05:05;4.57;;;1.40;;
1380;SDS011;684;48.342;10.096;2023-05-10T15:07:32;4.20;;;1.63;;
1380;SDS011;684;48.342;10.096;2023-05-10T15:09:59;4.57;;;1.70;;
1380;SDS011;684;48.342;10.096;2023-05-10T15:12:26;4.90;;;1.40;;
1380;SDS011;684;48.342;10.096;2023-05-10T15:14:53;4.93;;;1.70;;
1380;SDS011;684;48.342;10.096;2023-05-10T15:17:19;4.50;;;1.20;;
1380;SDS011;684;48.342;10.096;2023-05-10T15:19:46;6.90;;;1.60;;
1380;SDS011;684;48.342;10.096;2023-05-10T15:22:15;6.37;;;1.70;;
1380;SDS011;684;48.342;10.096;2023-05-10T15:24:42;6.27;;;1.97;;
1380;SDS011;684;48.342;10.096;2023-05-10T15:27:09;5.17;;;1.63;;
1380;SDS011;684;48.342;10.096;2023-05-10T15:29:36;3.90;;;1.30;;
1380;SDS011;684;48.342;10.096;2023-05-10T15:32:03;6.57;;;1.43;;
1380;SDS011;684;48.342;10.096;2023-05-10T15:34:30;6.70;;;1.57;;